Edinburgh, United Kingdom
Current Conditions -  °F | °C
As of 4:20 PM on Wednesday 22 Oct 2014 (Local Time) from EGPH Reporting Station
Broken Clouds Broken Clouds  
Wind Chill: 54°   Ceiling: 1600
Heat Index: 54°   Visibility: 6mi
Dew Point: 48°   Wind: 18mph
Humidity: 82%   Direction: 240°WSW
Pressure: 29.97"   Gusts: NA
Location:  55.95°N, 3.19°W
Report Text: EGPH 221520Z 24016KT 9999 BKN016 12/09 Q1015
Loading
Personal Weather Stations






























Interactive Weather Map
Tropical Storm Tracking
New forecast layout! Learn more

10-Day Weather Forecast

Advertisements
Track Severe Weather on mobile